Time;durP1;ratioP1;P1;durP2;ratioP2;P2;SDS_P1;SDS_P2;PMS_P1;PMS_P2;Temp;Humidity;BMP_temperature;BMP_pressure;BME280_temperature;BME280_humidity;BME280_pressure;Samples;Min_cycle;Max_cycle;Signal;HPM_P1;HPM_P2
2023/06/24 00:01:15;;;;;;;37.00;23.02;;;;;;;;;;5053466;28;20068;-83
2023/06/24 00:03:46;;;;;;;29.50;22.40;;;;;;;;;;5053685;28;20064;-82
2023/06/24 00:06:17;;;;;;;31.92;22.73;;;;;;;;;;5053825;28;20089;-82
2023/06/24 00:08:46;;;;;;;37.95;24.33;;;;;;;;;;5068360;28;20386;-82
2023/06/24 00:11:13;;;;;;;34.03;25.67;;;;;;;;;;5053673;28;20116;-82
2023/06/24 00:13:39;;;;;;;37.13;23.88;;;;;;;;;;5052074;28;20056;-82
2023/06/24 00:16:06;;;;;;;33.83;24.92;;;;;;;;;;5071267;28;20025;-82
2023/06/24 00:18:35;;;;;;;33.50;24.98;;;;;;;;;;5057494;28;20037;-82
2023/06/24 00:21:04;;;;;;;35.50;24.02;;;;;;;;;;5057524;28;20385;-82
2023/06/24 00:23:35;;;;;;;38.67;25.33;;;;;;;;;;5072566;28;20414;-82
2023/06/24 00:26:01;;;;;;;38.50;26.02;;;;;;;;;;5057423;28;20425;-82
2023/06/24 00:28:26;;;;;;;39.60;27.52;;;;;;;;;;5057288;28;20120;-82
2023/06/24 00:30:52;;;;;;;49.53;26.45;;;;;;;;;;5039563;28;20044;-82
2023/06/24 00:33:19;;;;;;;38.78;26.63;;;;;;;;;;5056213;28;20430;-82
2023/06/24 00:35:44;;;;;;;40.75;26.65;;;;;;;;;;5055698;28;20409;-82
2023/06/24 00:38:10;;;;;;;41.35;25.40;;;;;;;;;;5056244;28;20052;-82
2023/06/24 00:40:35;;;;;;;39.70;26.92;;;;;;;;;;5057038;28;20123;-82
2023/06/24 00:43:01;;;;;;;40.97;26.88;;;;;;;;;;5057138;28;20354;-82
2023/06/24 00:45:27;;;;;;;43.03;26.98;;;;;;;;;;5055842;28;20566;-81
2023/06/24 00:47:54;;;;;;;40.90;26.85;;;;;;;;;;5072304;28;20068;-82
2023/06/24 00:50:19;;;;;;;43.85;26.83;;;;;;;;;;5039819;28;20352;-82
2023/06/24 00:52:45;;;;;;;40.63;27.02;;;;;;;;;;5056788;28;20035;-82
2023/06/24 00:55:12;;;;;;;42.45;27.63;;;;;;;;;;5056806;28;20043;-82
2023/06/24 00:57:39;;;;;;;44.53;28.60;;;;;;;;;;5056578;28;20451;-82
2023/06/24 01:00:09;;;;;;;45.67;28.20;;;;;;;;;;5055844;28;20044;-82
2023/06/24 01:02:37;;;;;;;38.80;27.00;;;;;;;;;;5056654;28;20076;-82
2023/06/24 01:05:03;;;;;;;38.92;27.55;;;;;;;;;;5038831;28;20033;-82
2023/06/24 01:07:29;;;;;;;39.17;27.35;;;;;;;;;;5038795;28;20059;-82
2023/06/24 01:09:57;;;;;;;40.50;29.13;;;;;;;;;;5055877;28;20049;-82
2023/06/24 01:12:22;;;;;;;43.25;27.95;;;;;;;;;;5038628;28;20043;-80
2023/06/24 01:14:48;;;;;;;48.15;28.67;;;;;;;;;;5056506;28;20035;-80
2023/06/24 01:17:18;;;;;;;48.17;28.48;;;;;;;;;;5038584;28;20075;-80
2023/06/24 01:19:49;;;;;;;45.03;28.85;;;;;;;;;;5038524;28;20029;-81
2023/06/24 01:22:46;;;;;;;45.22;29.35;;;;;;;;;;5056681;28;20029;-82
2023/06/24 01:25:39;;;;;;;45.13;28.15;;;;;;;;;;5056308;28;20048;-82
2023/06/24 01:28:15;;;;;;;41.55;28.65;;;;;;;;;;5055916;28;20064;-82
2023/06/24 01:30:55;;;;;;;40.05;28.13;;;;;;;;;;5071226;28;20024;-82
2023/06/24 01:33:26;;;;;;;44.78;27.85;;;;;;;;;;5056178;28;20041;-81
2023/06/24 01:35:52;;;;;;;44.70;27.65;;;;;;;;;;5071473;28;20443;-82
2023/06/24 01:38:23;;;;;;;42.60;27.17;;;;;;;;;;5038529;28;20072;-82
2023/06/24 01:40:48;;;;;;;46.20;28.23;;;;;;;;;;5071067;28;20094;-82
2023/06/24 01:43:13;;;;;;;40.17;27.67;;;;;;;;;;5054860;28;20455;-82
2023/06/24 01:45:43;;;;;;;40.67;27.73;;;;;;;;;;5071572;28;20071;-82
2023/06/24 01:48:27;;;;;;;40.28;27.05;;;;;;;;;;5054870;28;20025;-82
2023/06/24 01:51:01;;;;;;;42.78;28.50;;;;;;;;;;5071353;28;20033;-82
2023/06/24 01:53:27;;;;;;;48.58;29.83;;;;;;;;;;5054423;28;20029;-82
2023/06/24 01:55:53;;;;;;;42.35;29.75;;;;;;;;;;5071310;28;20392;-81
2023/06/24 01:58:19;;;;;;;48.88;29.42;;;;;;;;;;5054554;28;20155;-82
2023/06/24 02:00:44;;;;;;;41.22;29.08;;;;;;;;;;5054547;28;20017;-83
2023/06/24 02:03:10;;;;;;;47.28;30.63;;;;;;;;;;5037786;28;20064;-82
2023/06/24 02:05:35;;;;;;;46.00;29.17;;;;;;;;;;5037825;28;20394;-82
2023/06/24 02:08:01;;;;;;;45.90;29.67;;;;;;;;;;5070818;28;20032;-82
2023/06/24 02:10:27;;;;;;;43.33;27.73;;;;;;;;;;5020704;28;20032;-81
2023/06/24 02:12:53;;;;;;;47.60;28.30;;;;;;;;;;5054202;28;20037;-82
2023/06/24 02:15:18;;;;;;;47.13;27.75;;;;;;;;;;5054145;28;20083;-82
2023/06/24 02:17:44;;;;;;;43.92;28.60;;;;;;;;;;5037622;28;20071;-82
2023/06/24 02:20:10;;;;;;;41.97;28.88;;;;;;;;;;5055082;28;20051;-82
2023/06/24 02:22:39;;;;;;;43.75;27.50;;;;;;;;;;5070572;28;20047;-82
2023/06/24 02:25:05;;;;;;;41.05;27.05;;;;;;;;;;5070260;28;20025;-82
2023/06/24 02:27:30;;;;;;;52.72;29.17;;;;;;;;;;5053632;28;20039;-81
2023/06/24 02:29:56;;;;;;;49.00;29.55;;;;;;;;;;5053781;28;20029;-82
2023/06/24 02:32:21;;;;;;;45.65;29.65;;;;;;;;;;5053602;28;20068;-82
2023/06/24 02:34:47;;;;;;;42.15;29.25;;;;;;;;;;5053596;28;20052;-83
2023/06/24 02:37:12;;;;;;;43.13;28.77;;;;;;;;;;5070310;28;20098;-83
2023/06/24 02:39:43;;;;;;;42.13;28.65;;;;;;;;;;5036034;28;20029;-83
2023/06/24 02:42:10;;;;;;;50.95;29.52;;;;;;;;;;5052841;28;20041;-82
2023/06/24 02:44:35;;;;;;;44.38;30.05;;;;;;;;;;5036750;28;20040;-82
2023/06/24 02:47:00;;;;;;;47.67;30.00;;;;;;;;;;5036913;28;20029;-82
2023/06/24 02:49:26;;;;;;;46.63;29.40;;;;;;;;;;5053803;28;20028;-82
2023/06/24 02:51:51;;;;;;;47.67;31.77;;;;;;;;;;5054721;28;20092;-82
2023/06/24 02:54:17;;;;;;;58.00;30.95;;;;;;;;;;5053010;28;20025;-81
2023/06/24 02:56:43;;;;;;;54.25;31.92;;;;;;;;;;5036637;28;20036;-82
2023/06/24 02:59:09;;;;;;;51.03;30.25;;;;;;;;;;5053512;28;20036;-83
2023/06/24 03:01:38;;;;;;;44.22;30.55;;;;;;;;;;5054163;28;20044;-82
2023/06/24 03:04:04;;;;;;;43.13;28.95;;;;;;;;;;5069274;28;20029;-81
2023/06/24 03:06:30;;;;;;;49.08;30.13;;;;;;;;;;5020164;28;20039;-82
2023/06/24 03:08:55;;;;;;;47.22;30.40;;;;;;;;;;5053311;28;20150;-82
2023/06/24 03:11:21;;;;;;;45.05;29.00;;;;;;;;;;5052903;28;20033;-82
2023/06/24 03:13:46;;;;;;;48.25;29.88;;;;;;;;;;5054204;28;20119;-82
2023/06/24 03:16:12;;;;;;;43.45;29.90;;;;;;;;;;5054373;28;20043;-82
2023/06/24 03:18:46;;;;;;;40.97;29.23;;;;;;;;;;5069787;28;20025;-82
2023/06/24 03:21:12;;;;;;;48.15;28.90;;;;;;;;;;5054083;28;20051;-82
2023/06/24 03:23:37;;;;;;;57.50;29.45;;;;;;;;;;5053812;28;20021;-82
2023/06/24 03:26:03;;;;;;;48.85;27.80;;;;;;;;;;5036257;28;20043;-82
2023/06/24 03:28:32;;;;;;;47.63;27.67;;;;;;;;;;5052844;28;20081;-82
2023/06/24 03:30:58;;;;;;;44.25;28.70;;;;;;;;;;5069384;28;20433;-82
2023/06/24 03:33:24;;;;;;;40.80;27.60;;;;;;;;;;5052753;28;20462;-82
2023/06/24 03:35:50;;;;;;;43.38;28.23;;;;;;;;;;5054294;28;20021;-82
2023/06/24 03:38:15;;;;;;;47.90;28.10;;;;;;;;;;5065539;28;20056;-82
2023/06/24 03:40:41;;;;;;;45.17;27.67;;;;;;;;;;5083442;28;20029;-82
2023/06/24 03:43:06;;;;;;;47.80;27.63;;;;;;;;;;5084879;28;20021;-82
2023/06/24 03:45:32;;;;;;;44.95;28.42;;;;;;;;;;5057772;28;20029;-82
2023/06/24 03:47:57;;;;;;;44.83;29.20;;;;;;;;;;5078520;28;20358;-82
2023/06/24 03:50:22;;;;;;;45.58;27.63;;;;;;;;;;5040824;28;20037;-82
2023/06/24 03:52:48;;;;;;;43.88;27.02;;;;;;;;;;5035598;28;20039;-82
2023/06/24 03:55:13;;;;;;;45.15;26.90;;;;;;;;;;5053954;28;20112;-82
2023/06/24 03:57:39;;;;;;;42.33;27.63;;;;;;;;;;5035861;28;20580;-83
2023/06/24 04:00:13;;;;;;;45.55;26.70;;;;;;;;;;5069116;28;20033;-83
2023/06/24 04:02:38;;;;;;;45.72;26.33;;;;;;;;;;5053448;28;20055;-82
2023/06/24 04:05:06;;;;;;;42.42;27.20;;;;;;;;;;5035537;28;20025;-83
2023/06/24 04:07:31;;;;;;;45.90;27.70;;;;;;;;;;5053595;28;20024;-82
2023/06/24 04:09:57;;;;;;;49.58;27.63;;;;;;;;;;5053550;28;20025;-82
2023/06/24 04:12:23;;;;;;;47.42;27.33;;;;;;;;;;5053373;28;20033;-82
2023/06/24 04:14:48;;;;;;;41.42;27.92;;;;;;;;;;5053514;28;20035;-82
2023/06/24 04:17:14;;;;;;;50.15;28.25;;;;;;;;;;5053468;28;20429;-83
2023/06/24 04:19:39;;;;;;;41.47;27.17;;;;;;;;;;5053132;28;20434;-82
2023/06/24 04:22:04;;;;;;;43.30;27.67;;;;;;;;;;5053327;28;20029;-83
2023/06/24 04:24:30;;;;;;;47.40;29.65;;;;;;;;;;5053599;28;20032;-83
2023/06/24 04:26:55;;;;;;;53.60;31.20;;;;;;;;;;5069090;28;20120;-82
2023/06/24 04:29:21;;;;;;;54.17;30.58;;;;;;;;;;5068917;28;20031;-82
2023/06/24 04:31:46;;;;;;;43.42;28.92;;;;;;;;;;5053197;28;20347;-83
2023/06/24 04:34:11;;;;;;;48.78;28.15;;;;;;;;;;5035451;28;20029;-81
2023/06/24 04:36:38;;;;;;;44.30;26.73;;;;;;;;;;5035414;28;20036;-80
2023/06/24 04:39:04;;;;;;;42.00;26.42;;;;;;;;;;5035391;28;20423;-81
2023/06/24 04:41:29;;;;;;;42.00;26.77;;;;;;;;;;5035334;28;20040;-82
2023/06/24 04:43:55;;;;;;;42.38;25.52;;;;;;;;;;5053235;28;20097;-82
2023/06/24 04:46:21;;;;;;;39.90;25.63;;;;;;;;;;5018886;28;20106;-82
2023/06/24 04:48:47;;;;;;;43.03;26.35;;;;;;;;;;5053140;28;20029;-81
2023/06/24 04:51:12;;;;;;;39.58;26.05;;;;;;;;;;5018654;28;20462;-82
2023/06/24 04:53:37;;;;;;;40.72;26.83;;;;;;;;;;5035546;28;20466;-81
2023/06/24 04:56:03;;;;;;;34.92;24.55;;;;;;;;;;5068484;28;20061;-81
2023/06/24 04:58:28;;;;;;;35.85;25.50;;;;;;;;;;5068758;28;20399;-82
2023/06/24 05:00:54;;;;;;;42.38;25.85;;;;;;;;;;5053052;28;20040;-81
2023/06/24 05:03:19;;;;;;;37.58;24.80;;;;;;;;;;5071520;28;20041;-81
2023/06/24 05:05:45;;;;;;;43.10;24.60;;;;;;;;;;5039011;28;20417;-82
2023/06/24 05:08:10;;;;;;;39.47;25.17;;;;;;;;;;5072444;28;20115;-81
2023/06/24 05:10:36;;;;;;;42.30;24.67;;;;;;;;;;5056423;28;20033;-81
2023/06/24 05:13:01;;;;;;;39.70;24.25;;;;;;;;;;5055207;28;20041;-81
2023/06/24 05:15:26;;;;;;;40.67;23.33;;;;;;;;;;5056657;28;20094;-81
2023/06/24 05:17:52;;;;;;;38.28;24.17;;;;;;;;;;5038259;28;20033;-82
2023/06/24 05:20:17;;;;;;;33.25;23.23;;;;;;;;;;5056323;28;20040;-83
2023/06/24 05:22:43;;;;;;;38.10;23.88;;;;;;;;;;5071986;28;20045;-82
2023/06/24 05:25:09;;;;;;;36.50;22.25;;;;;;;;;;5038672;28;20043;-83
2023/06/24 05:27:34;;;;;;;30.42;22.40;;;;;;;;;;5056190;28;20029;-82
2023/06/24 05:29:59;;;;;;;34.13;22.25;;;;;;;;;;5071821;28;20033;-82
2023/06/24 05:32:25;;;;;;;37.38;23.05;;;;;;;;;;5055334;28;20049;-83
2023/06/24 05:34:50;;;;;;;39.50;22.92;;;;;;;;;;5056003;28;20133;-82
2023/06/24 05:37:16;;;;;;;35.58;22.40;;;;;;;;;;5071426;28;20115;-82
2023/06/24 05:39:41;;;;;;;38.08;21.70;;;;;;;;;;5055928;28;20109;-82
2023/06/24 05:42:07;;;;;;;34.22;20.98;;;;;;;;;;5055937;28;20135;-82
2023/06/24 05:44:33;;;;;;;31.52;20.98;;;;;;;;;;5056003;28;20021;-82
2023/06/24 05:46:59;;;;;;;29.95;21.15;;;;;;;;;;5055599;28;20025;-82
2023/06/24 05:49:24;;;;;;;29.48;20.38;;;;;;;;;;5038304;28;20021;-82
2023/06/24 05:51:49;;;;;;;29.15;20.65;;;;;;;;;;5054502;28;20094;-83
2023/06/24 05:54:15;;;;;;;33.63;20.25;;;;;;;;;;5055922;28;20057;-82
2023/06/24 05:56:40;;;;;;;31.08;20.05;;;;;;;;;;5055790;28;20071;-82
2023/06/24 05:59:06;;;;;;;26.30;20.35;;;;;;;;;;5037921;28;20087;-83
2023/06/24 06:01:31;;;;;;;37.17;21.33;;;;;;;;;;5055205;28;20106;-82
2023/06/24 06:03:57;;;;;;;29.58;21.35;;;;;;;;;;5055586;28;20064;-82
2023/06/24 06:06:22;;;;;;;26.60;19.38;;;;;;;;;;5054248;28;20028;-82
2023/06/24 06:08:47;;;;;;;29.38;20.27;;;;;;;;;;5070868;28;20029;-83
2023/06/24 06:11:13;;;;;;;29.52;20.25;;;;;;;;;;5055281;28;20025;-83
2023/06/24 06:13:38;;;;;;;28.67;20.45;;;;;;;;;;5054216;28;20021;-83
2023/06/24 06:16:04;;;;;;;29.17;20.75;;;;;;;;;;5053834;28;20017;-83
2023/06/24 06:18:29;;;;;;;29.33;18.95;;;;;;;;;;5037564;28;20021;-82
2023/06/24 06:20:55;;;;;;;25.30;18.77;;;;;;;;;;5055234;28;20021;-83
2023/06/24 06:23:20;;;;;;;29.52;19.85;;;;;;;;;;5037664;28;20029;-83
2023/06/24 06:25:46;;;;;;;30.05;19.00;;;;;;;;;;5055202;28;20020;-83
2023/06/24 06:28:11;;;;;;;25.30;18.27;;;;;;;;;;5070675;28;20025;-83
2023/06/24 06:30:37;;;;;;;22.50;18.80;;;;;;;;;;5054877;28;20013;-83
2023/06/24 06:33:02;;;;;;;22.20;19.02;;;;;;;;;;5055519;28;20046;-83
2023/06/24 06:35:28;;;;;;;28.05;17.85;;;;;;;;;;5054880;28;20028;-83
2023/06/24 06:37:54;;;;;;;24.33;18.75;;;;;;;;;;5054962;28;20060;-83
2023/06/24 06:40:22;;;;;;;22.67;17.58;;;;;;;;;;5070318;28;20327;-83
2023/06/24 06:42:47;;;;;;;;;;;;;;;;;;5055604;28;20039;-84
2023/06/24 06:45:13;;;;;;;27.00;17.15;;;;;;;;;;5069975;28;19912;-83
2023/06/24 06:47:38;;;;;;;22.60;16.80;;;;;;;;;;5070329;28;20036;-84
2023/06/24 06:50:04;;;;;;;20.38;16.77;;;;;;;;;;5053387;28;20076;-83
2023/06/24 06:52:30;;;;;;;20.35;16.70;;;;;;;;;;5070203;28;20060;-83
2023/06/24 06:54:56;;;;;;;28.83;16.77;;;;;;;;;;5054868;28;20071;-83
2023/06/24 06:57:22;;;;;;;19.33;15.93;;;;;;;;;;5053970;28;20021;-81
2023/06/24 06:59:49;;;;;;;21.63;17.08;;;;;;;;;;5036418;28;20021;-83
2023/06/24 07:02:15;;;;;;;25.02;16.42;;;;;;;;;;5053263;28;20048;-84
2023/06/24 07:04:40;;;;;;;20.65;16.50;;;;;;;;;;5069803;28;20036;-81
2023/06/24 07:07:05;;;;;;;18.88;16.27;;;;;;;;;;5036717;28;20039;-81
2023/06/24 07:09:31;;;;;;;21.40;15.77;;;;;;;;;;5054192;28;20107;-81
2023/06/24 07:11:56;;;;;;;20.85;16.30;;;;;;;;;;5069820;28;20370;-82
2023/06/24 07:14:22;;;;;;;22.00;15.60;;;;;;;;;;5053999;28;20029;-81
2023/06/24 07:16:47;;;;;;;18.02;15.02;;;;;;;;;;5054390;28;20051;-83
2023/06/24 07:19:13;;;;;;;19.92;15.38;;;;;;;;;;5054227;28;20147;-82
2023/06/24 07:21:39;;;;;;;20.17;15.55;;;;;;;;;;5054064;28;20086;-82
2023/06/24 07:24:05;;;;;;;23.60;16.33;;;;;;;;;;5053781;28;20033;-82
2023/06/24 07:26:30;;;;;;;18.08;16.15;;;;;;;;;;5052692;28;20036;-84
2023/06/24 07:28:59;;;;;;;17.75;15.13;;;;;;;;;;5053826;28;20025;-82
2023/06/24 07:31:24;;;;;;;21.45;15.40;;;;;;;;;;5069439;28;20036;-82
2023/06/24 07:33:49;;;;;;;18.20;14.27;;;;;;;;;;5053997;28;20025;-82
2023/06/24 07:36:15;;;;;;;16.13;14.10;;;;;;;;;;5053964;28;20446;-82
2023/06/24 07:38:40;;;;;;;20.75;12.85;;;;;;;;;;5069357;28;20029;-81
2023/06/24 07:41:06;;;;;;;17.73;13.07;;;;;;;;;;5036062;28;20098;-82
2023/06/24 07:43:31;;;;;;;15.27;11.40;;;;;;;;;;5069330;28;20481;-82
2023/06/24 07:45:56;;;;;;;13.70;11.07;;;;;;;;;;5069286;28;20067;-82
2023/06/24 07:48:22;;;;;;;14.25;11.20;;;;;;;;;;5053780;28;20068;-82
2023/06/24 07:50:47;;;;;;;12.82;11.40;;;;;;;;;;5035838;28;20127;-81
2023/06/24 07:53:13;;;;;;;13.85;12.27;;;;;;;;;;5053732;28;20068;-82
2023/06/24 07:55:38;;;;;;;13.68;10.98;;;;;;;;;;5069136;28;20060;-82
2023/06/24 07:58:04;;;;;;;13.13;11.73;;;;;;;;;;5053398;28;20032;-82
2023/06/24 08:00:30;;;;;;;12.30;11.02;;;;;;;;;;5053783;28;20029;-83
2023/06/24 08:02:57;;;;;;;15.93;11.77;;;;;;;;;;5052242;28;20409;-82
2023/06/24 08:05:23;;;;;;;18.63;12.25;;;;;;;;;;5035713;28;20109;-82
2023/06/24 08:07:50;;;;;;;15.98;11.18;;;;;;;;;;5053981;28;20524;-82
2023/06/24 08:10:16;;;;;;;12.50;10.87;;;;;;;;;;5035772;28;20118;-82
2023/06/24 08:12:41;;;;;;;17.10;11.05;;;;;;;;;;5068532;28;20091;-82
2023/06/24 08:15:07;;;;;;;16.42;11.52;;;;;;;;;;5053581;28;20025;-82
2023/06/24 08:17:32;;;;;;;12.68;10.85;;;;;;;;;;5053805;28;20025;-82
2023/06/24 08:19:58;;;;;;;29.70;17.20;;;;;;;;;;5053440;28;20031;-83
2023/06/24 08:22:23;;;;;;;23.27;14.48;;;;;;;;;;5035688;28;20028;-82
2023/06/24 08:24:49;;;;;;;16.15;11.63;;;;;;;;;;5035593;28;20378;-83
2023/06/24 08:27:14;;;;;;;12.90;10.48;;;;;;;;;;5068625;28;20025;-82
2023/06/24 08:29:39;;;;;;;15.50;10.27;;;;;;;;;;5035855;28;20056;-82
2023/06/24 08:32:06;;;;;;;13.60;9.95;;;;;;;;;;5053132;28;20382;-82
2023/06/24 08:34:32;;;;;;;16.63;10.73;;;;;;;;;;5053458;28;20123;-82
2023/06/24 08:36:58;;;;;;;14.30;10.60;;;;;;;;;;5037086;28;20090;-82
2023/06/24 08:39:23;;;;;;;15.82;10.18;;;;;;;;;;5057118;28;20033;-82
2023/06/24 08:41:49;;;;;;;12.95;10.18;;;;;;;;;;5057104;28;20055;-82
2023/06/24 08:44:14;;;;;;;11.75;10.45;;;;;;;;;;5039162;28;20033;-83
2023/06/24 08:46:40;;;;;;;13.25;10.15;;;;;;;;;;5057034;28;20159;-82
2023/06/24 08:49:17;;;;;;;12.55;10.18;;;;;;;;;;5055660;28;20028;-82
2023/06/24 08:51:42;;;;;;;17.23;9.57;;;;;;;;;;5071445;28;20044;-83
2023/06/24 08:54:09;;;;;;;11.95;9.93;;;;;;;;;;5055504;28;20033;-83
2023/06/24 08:56:35;;;;;;;12.95;9.80;;;;;;;;;;5055370;28;20052;-82
2023/06/24 08:59:00;;;;;;;12.63;10.50;;;;;;;;;;5055533;28;20025;-82
2023/06/24 09:01:26;;;;;;;10.88;9.80;;;;;;;;;;5072058;28;20021;-82
2023/06/24 09:03:51;;;;;;;12.45;9.40;;;;;;;;;;5055311;28;20032;-82
2023/06/24 09:06:17;;;;;;;14.57;9.77;;;;;;;;;;5056589;28;20021;-82
2023/06/24 09:08:52;;;;;;;11.80;9.90;;;;;;;;;;5056520;28;20031;-83
2023/06/24 09:11:22;;;;;;;17.00;10.48;;;;;;;;;;5071655;28;20090;-81
2023/06/24 09:13:47;;;;;;;10.25;9.25;;;;;;;;;;5055266;28;20111;-83
2023/06/24 09:16:14;;;;;;;14.20;9.88;;;;;;;;;;5056444;28;20434;-82
2023/06/24 09:18:39;;;;;;;11.93;10.63;;;;;;;;;;5038615;28;20084;-82
2023/06/24 09:21:05;;;;;;;12.90;9.27;;;;;;;;;;5054919;28;20041;-82
2023/06/24 09:23:38;;;;;;;12.10;9.88;;;;;;;;;;5038574;28;20064;-83
2023/06/24 09:26:04;;;;;;;11.57;9.85;;;;;;;;;;5054364;28;20401;-83
2023/06/24 09:28:29;;;;;;;10.75;9.65;;;;;;;;;;5056435;28;20078;-83
2023/06/24 09:31:08;;;;;;;11.02;9.93;;;;;;;;;;5071868;28;20418;-82
2023/06/24 09:33:34;;;;;;;12.85;9.57;;;;;;;;;;5071545;28;20549;-84
2023/06/24 09:36:02;;;;;;;13.15;9.55;;;;;;;;;;5056389;28;20029;-83
2023/06/24 09:38:37;;;;;;;;;;;;;;;;;;5055131;28;20533;-83
2023/06/24 09:41:06;;;;;;;14.70;9.63;;;;;;;;;;5056379;28;19912;-83
2023/06/24 09:43:39;;;;;;;13.85;9.15;;;;;;;;;;5054804;28;20043;-83
2023/06/24 09:46:05;;;;;;;11.38;9.00;;;;;;;;;;5056477;28;20078;-82
2023/06/24 09:48:30;;;;;;;10.40;9.20;;;;;;;;;;5071342;28;20029;-82
2023/06/24 09:51:00;;;;;;;14.85;9.23;;;;;;;;;;5054749;28;20036;-83
2023/06/24 09:53:35;;;;;;;11.25;9.55;;;;;;;;;;5055580;28;20025;-82
2023/06/24 09:56:01;;;;;;;15.55;9.50;;;;;;;;;;5069547;28;20040;-83
2023/06/24 09:58:29;;;;;;;11.82;9.30;;;;;;;;;;5070467;28;20033;-83
2023/06/24 10:00:55;;;;;;;11.10;9.30;;;;;;;;;;5052930;28;20039;-82
2023/06/24 10:03:20;;;;;;;14.40;9.00;;;;;;;;;;5070617;28;20037;-83
2023/06/24 10:05:46;;;;;;;11.43;9.52;;;;;;;;;;5054798;28;20033;-83
2023/06/24 10:08:13;;;;;;;10.55;8.98;;;;;;;;;;5037888;28;20037;-82
2023/06/24 10:10:39;;;;;;;9.80;8.52;;;;;;;;;;5055594;28;20025;-83
2023/06/24 10:13:04;;;;;;;11.82;8.82;;;;;;;;;;5070904;28;20039;-82
2023/06/24 10:15:29;;;;;;;9.70;8.68;;;;;;;;;;5054800;28;20443;-83
2023/06/24 10:17:55;;;;;;;14.95;9.10;;;;;;;;;;5071383;28;20091;-83
2023/06/24 10:20:25;;;;;;;10.18;9.02;;;;;;;;;;5055448;28;20347;-82
2023/06/24 10:22:51;;;;;;;13.93;9.00;;;;;;;;;;5053772;28;20465;-83
2023/06/24 10:25:17;;;;;;;15.27;9.07;;;;;;;;;;5071129;28;20033;-82
2023/06/24 10:27:43;;;;;;;12.98;9.70;;;;;;;;;;5055272;28;20035;-82
2023/06/24 10:30:09;;;;;;;20.13;10.65;;;;;;;;;;5070547;28;20029;-83
2023/06/24 10:32:42;;;;;;;20.77;11.48;;;;;;;;;;5037371;28;20137;-82
2023/06/24 10:35:07;;;;;;;21.48;13.00;;;;;;;;;;5053966;28;20031;-83
2023/06/24 10:37:33;;;;;;;21.98;12.15;;;;;;;;;;5036939;28;20123;-81
2023/06/24 10:40:02;;;;;;;18.08;11.93;;;;;;;;;;5070650;28;20029;-82
2023/06/24 10:42:48;;;;;;;20.40;13.13;;;;;;;;;;5055425;28;20462;-83
2023/06/24 10:45:14;;;;;;;20.38;13.50;;;;;;;;;;5070254;28;20391;-82
2023/06/24 10:47:41;;;;;;;15.27;12.05;;;;;;;;;;5036990;28;20024;-82
2023/06/24 10:50:08;;;;;;;15.50;12.55;;;;;;;;;;5037318;28;20044;-82
2023/06/24 10:52:43;;;;;;;21.67;12.48;;;;;;;;;;5069932;28;20052;-82
2023/06/24 10:55:08;;;;;;;19.10;12.82;;;;;;;;;;5068909;28;20032;-82
2023/06/24 10:57:34;;;;;;;20.40;12.25;;;;;;;;;;5037285;28;20024;-83
2023/06/24 11:00:00;;;;;;;20.42;12.25;;;;;;;;;;5069481;28;20435;-82
2023/06/24 11:02:26;;;;;;;16.58;12.25;;;;;;;;;;5069775;28;20186;-82
2023/06/24 11:04:52;;;;;;;17.60;12.48;;;;;;;;;;5054641;28;20036;-82
2023/06/24 11:07:19;;;;;;;23.42;12.45;;;;;;;;;;5054535;28;20051;-83
2023/06/24 11:09:52;;;;;;;22.92;12.20;;;;;;;;;;5069942;28;20189;-82
2023/06/24 11:12:17;;;;;;;22.02;12.82;;;;;;;;;;5053105;28;20025;-82
2023/06/24 11:14:43;;;;;;;18.33;12.65;;;;;;;;;;5069805;28;20462;-82
2023/06/24 11:17:08;;;;;;;16.60;12.73;;;;;;;;;;5069964;28;20060;-82
2023/06/24 11:19:35;;;;;;;20.83;12.73;;;;;;;;;;5053206;28;20033;-82
2023/06/24 11:22:01;;;;;;;22.75;13.15;;;;;;;;;;5069318;28;20059;-82
2023/06/24 11:24:29;;;;;;;25.13;14.35;;;;;;;;;;5054161;28;20476;-82
2023/06/24 11:26:55;;;;;;;19.20;13.93;;;;;;;;;;5054535;28;20036;-82
2023/06/24 11:29:21;;;;;;;21.20;13.75;;;;;;;;;;5054130;28;20033;-82
2023/06/24 11:31:46;;;;;;;18.13;13.40;;;;;;;;;;5054275;28;20029;-82
2023/06/24 11:34:12;;;;;;;18.23;14.55;;;;;;;;;;5054116;28;20025;-81
2023/06/24 11:36:37;;;;;;;22.33;14.57;;;;;;;;;;5053889;28;20071;-82
2023/06/24 11:39:03;;;;;;;21.02;14.70;;;;;;;;;;5036217;28;20125;-82
2023/06/24 11:41:28;;;;;;;27.88;14.65;;;;;;;;;;5054026;28;20117;-83
2023/06/24 11:43:54;;;;;;;20.75;15.18;;;;;;;;;;5069603;28;20442;-82
2023/06/24 11:46:33;;;;;;;18.35;14.23;;;;;;;;;;5036242;28;20038;-82
2023/06/24 11:49:05;;;;;;;17.40;14.38;;;;;;;;;;5053960;28;20382;-82
2023/06/24 11:51:30;;;;;;;21.95;14.02;;;;;;;;;;5054018;28;20033;-82
2023/06/24 11:53:59;;;;;;;19.83;14.35;;;;;;;;;;5035925;28;20052;-82
2023/06/24 11:56:40;;;;;;;24.77;14.80;;;;;;;;;;5053992;28;20040;-82
2023/06/24 11:59:20;;;;;;;20.23;13.93;;;;;;;;;;5054315;28;20115;-82
2023/06/24 12:01:55;;;;;;;21.90;14.60;;;;;;;;;;5053705;28;20458;-82
2023/06/24 12:04:20;;;;;;;22.15;14.40;;;;;;;;;;5069000;28;20028;-82
2023/06/24 12:06:46;;;;;;;20.50;14.60;;;;;;;;;;5036042;28;20029;-83
2023/06/24 12:09:12;;;;;;;18.88;13.55;;;;;;;;;;5053755;28;20029;-82
2023/06/24 12:11:37;;;;;;;23.13;14.23;;;;;;;;;;5072077;28;20040;-82
2023/06/24 12:14:03;;;;;;;20.02;14.10;;;;;;;;;;5058106;28;20398;-82
2023/06/24 12:16:29;;;;;;;32.60;14.88;;;;;;;;;;5057794;28;20363;-82
2023/06/24 12:18:54;;;;;;;23.27;15.23;;;;;;;;;;5039867;28;20037;-82
2023/06/24 12:21:20;;;;;;;25.73;14.45;;;;;;;;;;5040185;28;20091;-83
2023/06/24 12:23:45;;;;;;;21.13;15.88;;;;;;;;;;5057500;28;20375;-82
2023/06/24 12:26:11;;;;;;;20.67;16.33;;;;;;;;;;5039877;28;20037;-82
2023/06/24 12:28:37;;;;;;;21.30;16.55;;;;;;;;;;5057632;28;20036;-83
2023/06/24 12:31:02;;;;;;;21.63;17.40;;;;;;;;;;5039541;28;20051;-82
2023/06/24 12:33:28;;;;;;;21.63;16.70;;;;;;;;;;5057216;28;20465;-82
2023/06/24 12:35:53;;;;;;;29.33;16.00;;;;;;;;;;5072916;28;20428;-83
2023/06/24 12:38:19;;;;;;;29.02;16.48;;;;;;;;;;5057439;28;20163;-82
2023/06/24 12:40:45;;;;;;;21.60;15.68;;;;;;;;;;5057281;28;20036;-82
2023/06/24 12:43:10;;;;;;;25.58;16.20;;;;;;;;;;5072550;28;20037;-83
2023/06/24 12:45:37;;;;;;;24.33;15.60;;;;;;;;;;5057266;28;20040;-83
2023/06/24 12:48:03;;;;;;;24.60;15.75;;;;;;;;;;5038966;28;20047;-83
2023/06/24 12:50:31;;;;;;;27.90;16.00;;;;;;;;;;5072681;28;20115;-82
2023/06/24 12:52:57;;;;;;;23.65;16.13;;;;;;;;;;5057050;28;20470;-83
2023/06/24 12:55:22;;;;;;;26.90;17.13;;;;;;;;;;5057263;28;20033;-83
2023/06/24 12:57:48;;;;;;;25.00;16.30;;;;;;;;;;5055697;28;20446;-82
2023/06/24 13:00:14;;;;;;;21.50;14.30;;;;;;;;;;5056865;28;20029;-82
2023/06/24 13:02:39;;;;;;;24.33;15.02;;;;;;;;;;5056489;28;20049;-83
2023/06/24 13:05:05;;;;;;;28.25;15.20;;;;;;;;;;5057357;28;20123;-82
2023/06/24 13:07:30;;;;;;;24.10;16.42;;;;;;;;;;5056927;28;20053;-83
2023/06/24 13:09:56;;;;;;;22.90;15.70;;;;;;;;;;5056812;28;20025;-82
2023/06/24 13:12:22;;;;;;;21.92;16.30;;;;;;;;;;5056843;28;20025;-83
2023/06/24 13:14:47;;;;;;;26.55;16.58;;;;;;;;;;5056673;28;20447;-82
2023/06/24 13:17:13;;;;;;;31.00;17.23;;;;;;;;;;5056432;28;20032;-82
2023/06/24 13:19:38;;;;;;;29.88;16.67;;;;;;;;;;5038821;28;20028;-83
2023/06/24 13:22:04;;;;;;;27.50;16.95;;;;;;;;;;5055820;28;20028;-82
2023/06/24 13:24:30;;;;;;;28.38;18.02;;;;;;;;;;5056793;28;20029;-83
2023/06/24 13:26:55;;;;;;;33.20;17.02;;;;;;;;;;5072018;28;20013;-82
2023/06/24 13:29:20;;;;;;;34.90;16.90;;;;;;;;;;5056364;28;20098;-82
2023/06/24 13:31:46;;;;;;;23.58;15.90;;;;;;;;;;5056010;28;20032;-83
2023/06/24 13:34:11;;;;;;;26.33;15.52;;;;;;;;;;5056530;28;20025;-83
2023/06/24 13:36:37;;;;;;;24.67;15.70;;;;;;;;;;5071741;28;20061;-83
2023/06/24 13:39:04;;;;;;;24.10;14.65;;;;;;;;;;5056255;28;20027;-83
2023/06/24 13:41:31;;;;;;;25.70;15.77;;;;;;;;;;5071858;28;20068;-83
2023/06/24 13:43:58;;;;;;;25.05;16.08;;;;;;;;;;5056157;28;20031;-83
2023/06/24 13:46:23;;;;;;;23.00;15.48;;;;;;;;;;5055871;28;20108;-82
2023/06/24 13:48:49;;;;;;;20.10;14.50;;;;;;;;;;5038165;28;20052;-82
2023/06/24 13:51:16;;;;;;;25.10;16.30;;;;;;;;;;5056125;28;20550;-83
2023/06/24 13:53:41;;;;;;;23.00;15.80;;;;;;;;;;5055879;28;20031;-82
2023/06/24 13:56:07;;;;;;;25.60;15.55;;;;;;;;;;5055980;28;20127;-82
2023/06/24 13:58:32;;;;;;;26.65;16.35;;;;;;;;;;5055940;28;20024;-82
2023/06/24 14:00:57;;;;;;;23.83;16.88;;;;;;;;;;5054143;28;20032;-82
2023/06/24 14:03:23;;;;;;;24.83;15.30;;;;;;;;;;5071343;28;20045;-82
2023/06/24 14:05:48;;;;;;;24.98;16.25;;;;;;;;;;5038023;28;20390;-84
2023/06/24 14:08:14;;;;;;;23.92;15.85;;;;;;;;;;5055633;28;20110;-83
2023/06/24 14:10:39;;;;;;;33.45;15.80;;;;;;;;;;5055654;28;20029;-83
2023/06/24 14:13:05;;;;;;;22.52;15.68;;;;;;;;;;5071149;28;20029;-83
2023/06/24 14:15:30;;;;;;;24.35;14.50;;;;;;;;;;5055778;28;20021;-82